Terminal Aerodrome Forecast
Issued by NWS Central Illinois

Home | Current Version | Previous Version | Text Only | Print | Product List | Glossary On
Versions: 1 2 3 4 5 6 7 8 9 10 11 12 13 14 15 16 17 18 19 20 21 22 23 24 25 26 27 28 29 30 31 32
041
FTUS43 KILX 221146
TAFPIA
TAF
KPIA 221146Z 2212/2312 06011KT P6SM VCSH BKN015 OVC050
      TEMPO 2212/2215 4SM -FZRAPL BR OVC009
     FM221500 07010KT 4SM BR VCSH OVC015
     FM221900 09010KT 6SM BR OVC010
     FM230000 11009KT 6SM BR OVC010
     FM230300 13009KT 4SM -DZ BR OVC008
     FM230800 15007KT 2SM -RA BR OVC004=

USA.gov is the U.S. government's official web portal to all federal, state and local government web resources and services.